createdAt,value
2019-05-03T00:00:10.665Z,57.72
2019-05-03T00:02:43.548Z,58.44
2019-05-03T00:05:33.998Z,58.53
2019-05-03T00:08:05.740Z,58.43
2019-05-03T00:10:37.041Z,58.55
2019-05-03T00:13:07.984Z,58.23
2019-05-03T00:15:56.829Z,58.39
2019-05-03T00:18:27.840Z,58.14
2019-05-03T00:20:58.795Z,57.87
2019-05-03T00:23:29.747Z,58.52
2019-05-03T00:26:02.645Z,58.80
2019-05-03T00:28:33.584Z,58.62
2019-05-03T00:31:04.659Z,58.59
2019-05-03T00:33:37.645Z,58.92
2019-05-03T00:36:12.910Z,58.90
2019-05-03T00:38:44.171Z,58.78
2019-05-03T00:41:15.210Z,58.60
2019-05-03T00:43:46.192Z,58.74
2019-05-03T00:46:17.297Z,58.63
2019-05-03T00:48:48.398Z,58.77
2019-05-03T00:51:19.598Z,58.68
2019-05-03T00:53:53.168Z,58.79
2019-05-03T00:56:24.507Z,58.68
2019-05-03T00:58:57.102Z,58.83
2019-05-03T01:01:28.169Z,58.92
2019-05-03T01:03:59.136Z,58.89
2019-05-03T01:06:31.815Z,59.08
2019-05-03T01:09:04.513Z,58.81
2019-05-03T01:11:36.323Z,58.95
2019-05-03T01:14:07.270Z,58.87
2019-05-03T01:16:38.491Z,59.30
2019-05-03T01:19:09.652Z,59.46
2019-05-03T01:21:42.240Z,59.55
2019-05-03T01:24:13.754Z,59.62
2019-05-03T01:26:44.984Z,59.82
2019-05-03T01:29:16.041Z,59.79
2019-05-03T01:31:47.147Z,60.28
2019-05-03T01:34:18.232Z,60.07
2019-05-03T01:36:49.307Z,60.08
2019-05-03T01:39:22.071Z,60.42
2019-05-03T01:41:52.950Z,60.39
2019-05-03T01:44:24.013Z,60.50
2019-05-03T01:46:56.612Z,60.86
2019-05-03T01:49:29.239Z,61.17
2019-05-03T01:52:04.932Z,61.21
2019-05-03T01:54:35.939Z,61.49
2019-05-03T01:57:06.910Z,61.55
2019-05-03T01:59:37.821Z,62.00
2019-05-03T02:02:26.885Z,62.21
2019-05-03T02:05:15.998Z,61.96
2019-05-03T02:07:48.697Z,61.86
2019-05-03T02:10:20.077Z,61.99
2019-05-03T02:12:52.263Z,62.23
2019-05-03T02:15:23.431Z,62.46
2019-05-03T02:17:54.638Z,62.60
2019-05-03T02:20:25.822Z,63.01
2019-05-03T02:22:56.918Z,63.01
2019-05-03T02:25:27.936Z,63.20
2019-05-03T02:27:59.147Z,63.13
2019-05-03T02:30:32.923Z,63.16
2019-05-03T02:33:04.074Z,63.27
2019-05-03T02:35:35.556Z,63.83
2019-05-03T02:38:06.831Z,63.96
2019-05-03T02:40:37.887Z,63.97
2019-05-03T02:43:25.640Z,64.17
2019-05-03T02:46:05.810Z,64.21
2019-05-03T02:48:38.435Z,64.62
2019-05-03T02:51:09.486Z,64.63
2019-05-03T02:53:40.503Z,64.66
2019-05-03T02:56:18.287Z,64.74
2019-05-03T02:58:46.046Z,64.96
2019-05-03T03:01:16.789Z,64.89
2019-05-03T03:03:47.763Z,64.75
2019-05-03T03:06:19.555Z,64.89
2019-05-03T03:08:51.726Z,64.95
2019-05-03T03:11:22.761Z,65.05
2019-05-03T03:13:55.437Z,64.86
2019-05-03T03:16:26.473Z,64.70
2019-05-03T03:18:57.650Z,64.67
2019-05-03T03:21:30.375Z,64.62
2019-05-03T03:24:11.002Z,64.59
2019-05-03T03:26:43.449Z,64.47
2019-05-03T03:29:17.416Z,64.29
2019-05-03T03:31:51.960Z,64.01
2019-05-03T03:34:28.062Z,64.05
2019-05-03T03:37:04.618Z,63.82
2019-05-03T03:39:32.010Z,63.87
2019-05-03T03:42:05.432Z,63.73
2019-05-03T03:44:36.727Z,63.74
2019-05-03T03:47:07.846Z,63.66
2019-05-03T03:49:38.937Z,63.49
2019-05-03T03:52:09.973Z,63.43
2019-05-03T03:54:41.180Z,63.22
2019-05-03T03:57:15.783Z,62.95
2019-05-03T03:59:45.967Z,62.68
2019-05-03T04:02:17.095Z,62.55
2019-05-03T04:04:48.151Z,62.34
2019-05-03T04:07:19.223Z,62.19
2019-05-03T04:09:50.434Z,61.93
2019-05-03T04:12:21.695Z,61.68
2019-05-03T04:14:56.265Z,61.44
2019-05-03T04:17:29.223Z,61.26
2019-05-03T04:20:00.476Z,61.01
2019-05-03T04:22:31.630Z,60.68
2019-05-03T04:25:02.682Z,60.52
2019-05-03T04:27:36.413Z,60.44
2019-05-03T04:30:07.278Z,60.32
2019-05-03T04:32:38.461Z,60.00
2019-05-03T04:35:09.421Z,59.73
2019-05-03T04:37:40.532Z,59.54
2019-05-03T04:40:11.814Z,59.34
2019-05-03T04:42:46.127Z,59.11
2019-05-03T04:45:16.649Z,58.86
2019-05-03T04:47:47.897Z,58.68
2019-05-03T04:50:18.971Z,58.77
2019-05-03T04:52:50.061Z,58.92
2019-05-03T04:55:21.058Z,58.69
2019-05-03T04:57:51.975Z,58.38
2019-05-03T05:00:25.617Z,58.22
2019-05-03T05:02:55.561Z,57.99
2019-05-03T05:05:26.608Z,57.74
2019-05-03T05:07:57.508Z,57.64
2019-05-03T05:10:28.550Z,57.55
2019-05-03T05:12:59.678Z,57.35
2019-05-03T05:15:30.848Z,57.43
2019-05-03T05:18:05.723Z,57.57
2019-05-03T05:20:55.371Z,57.46
2019-05-03T05:23:25.997Z,57.21
2019-05-03T05:26:05.543Z,57.14
2019-05-03T05:28:38.297Z,57.01
2019-05-03T05:31:09.445Z,57.38
2019-05-03T05:33:40.496Z,57.20
2019-05-03T05:36:11.740Z,57.35
2019-05-03T05:38:44.917Z,57.22
2019-05-03T05:41:15.911Z,56.99
2019-05-03T05:43:47.012Z,57.02
2019-05-03T05:46:19.649Z,56.88
2019-05-03T05:48:55.470Z,56.53
2019-05-03T05:51:26.809Z,56.10
2019-05-03T05:53:57.927Z,55.58
2019-05-03T05:56:34.845Z,55.67
2019-05-03T05:59:14.879Z,54.96
2019-05-03T06:01:55.557Z,54.44
2019-05-03T06:04:26.629Z,54.25
2019-05-03T06:06:59.250Z,55.27
2019-05-03T06:09:37.390Z,55.80
2019-05-03T06:12:19.437Z,55.95
2019-05-03T06:14:52.198Z,55.46
2019-05-03T06:17:27.678Z,55.13
2019-05-03T06:20:00.175Z,54.77
2019-05-03T06:22:34.549Z,53.77
2019-05-03T06:25:08.543Z,53.10
2019-05-03T06:27:39.808Z,52.72
2019-05-03T06:30:12.482Z,52.40
2019-05-03T06:32:58.297Z,52.25
2019-05-03T06:35:29.720Z,52.00
2019-05-03T06:38:00.998Z,52.10
2019-05-03T06:40:32.101Z,52.12
2019-05-03T06:43:09.822Z,52.66
2019-05-03T06:45:35.860Z,52.16
2019-05-03T06:48:06.839Z,52.01
2019-05-03T06:50:37.807Z,51.76
2019-05-03T06:53:12.815Z,51.54
2019-05-03T06:55:45.541Z,51.56
2019-05-03T06:58:16.498Z,51.09
2019-05-03T07:01:04.672Z,50.62
2019-05-03T07:03:40.290Z,54.22
2019-05-03T07:06:37.277Z,52.38
2019-05-03T07:09:05.322Z,51.27
2019-05-03T07:11:36.647Z,49.63
2019-05-03T07:14:07.573Z,47.84
2019-05-03T07:16:38.826Z,46.77
2019-05-03T07:19:10.146Z,45.73
2019-05-03T07:21:41.568Z,44.66
2019-05-03T07:24:14.735Z,44.13
2019-05-03T07:26:45.998Z,43.38
2019-05-03T07:29:16.961Z,43.00
2019-05-03T07:31:54.899Z,42.94
2019-05-03T07:34:26.077Z,42.75
2019-05-03T07:36:57.189Z,41.56
2019-05-03T07:39:38.489Z,40.98
2019-05-03T07:42:28.265Z,40.54
2019-05-03T07:45:08.282Z,40.50
2019-05-03T07:47:39.527Z,40.30
2019-05-03T07:50:10.588Z,40.41
2019-05-03T07:52:41.995Z,38.18
2019-05-03T07:55:17.690Z,38.30
2019-05-03T07:57:50.441Z,38.93
2019-05-03T08:00:25.194Z,37.18
2019-05-03T08:02:55.920Z,36.06
2019-05-03T08:05:26.931Z,36.99
2019-05-03T08:07:58.003Z,35.76
2019-05-03T08:10:28.883Z,36.29
2019-05-03T08:12:59.975Z,38.06
2019-05-03T08:15:30.970Z,38.82
2019-05-03T08:18:02.023Z,39.84
2019-05-03T08:20:34.931Z,40.59
2019-05-03T08:23:05.801Z,40.91
2019-05-03T08:25:37.045Z,40.96
2019-05-03T08:28:08.122Z,40.62
2019-05-03T08:30:56.859Z,40.48
2019-05-03T08:33:41.639Z,39.96
2019-05-03T08:36:13.017Z,39.11
2019-05-03T08:38:45.196Z,39.53
2019-05-03T08:41:21.071Z,38.71
2019-05-03T08:43:52.035Z,39.12
2019-05-03T08:46:25.155Z,38.98
2019-05-03T08:48:55.788Z,38.91
2019-05-03T08:51:26.871Z,39.42
2019-05-03T08:53:57.952Z,39.25
2019-05-03T08:56:29.049Z,39.07
2019-05-03T08:59:00.151Z,39.60
2019-05-03T09:01:31.289Z,39.36
2019-05-03T09:04:02.340Z,39.23
2019-05-03T09:06:35.365Z,39.70
2019-05-03T09:09:08.348Z,39.63
2019-05-03T09:11:39.439Z,39.17
2019-05-03T09:14:17.960Z,38.44
2019-05-03T09:16:49.054Z,38.31
2019-05-03T09:19:20.085Z,38.38
2019-05-03T09:21:51.033Z,39.33
2019-05-03T09:24:22.048Z,40.05
2019-05-03T09:26:55.403Z,40.36
2019-05-03T09:29:39.993Z,39.92
2019-05-03T09:32:00.041Z,39.74
2019-05-03T09:34:31.141Z,40.03
2019-05-03T09:37:02.248Z,39.66
2019-05-03T09:39:35.546Z,38.40
2019-05-03T09:42:06.205Z,37.59
2019-05-03T09:44:37.146Z,37.53
2019-05-03T09:47:08.058Z,37.04
2019-05-03T09:49:39.170Z,36.42
2019-05-03T09:52:10.119Z,35.70
2019-05-03T09:54:45.176Z,35.20
2019-05-03T09:57:15.440Z,35.39
2019-05-03T09:59:56.453Z,36.06
2019-05-03T10:02:18.981Z,35.42
2019-05-03T10:04:49.910Z,34.50
2019-05-03T10:07:21.098Z,37.69
2019-05-03T10:09:52.115Z,36.32
2019-05-03T10:12:25.546Z,34.77
2019-05-03T10:14:57.743Z,34.26
2019-05-03T10:17:36.519Z,33.73
2019-05-03T10:20:09.303Z,34.45
2019-05-03T10:22:40.239Z,33.34
2019-05-03T10:25:11.190Z,33.00
2019-05-03T10:27:45.892Z,32.88
2019-05-03T10:30:19.559Z,32.04
2019-05-03T10:33:01.436Z,31.50
2019-05-03T10:35:32.516Z,32.34
2019-05-03T10:38:05.650Z,32.92
2019-05-03T10:40:37.292Z,31.99
2019-05-03T10:43:08.480Z,32.42
2019-05-03T10:45:40.763Z,33.49
2019-05-03T10:48:11.962Z,33.17
2019-05-03T10:50:43.586Z,32.98
2019-05-03T10:53:31.367Z,33.84
2019-05-03T10:56:22.636Z,35.90
2019-05-03T10:58:50.772Z,38.86
2019-05-03T11:01:25.467Z,41.81
2019-05-03T11:03:56.597Z,43.31
2019-05-03T11:06:27.537Z,44.05
2019-05-03T11:09:00.277Z,44.58
2019-05-03T11:11:35.013Z,44.99
2019-05-03T11:14:05.663Z,45.60
2019-05-03T11:16:36.678Z,45.71
2019-05-03T11:19:07.638Z,46.10
2019-05-03T11:21:38.590Z,45.00
2019-05-03T11:24:09.733Z,45.93
2019-05-03T11:26:42.450Z,45.46
2019-05-03T11:29:15.830Z,46.42
2019-05-03T11:32:09.122Z,46.21
2019-05-03T11:34:45.063Z,47.42
2019-05-03T11:37:34.630Z,45.42
2019-05-03T11:40:06.986Z,45.67
2019-05-03T11:42:39.022Z,43.46
2019-05-03T11:45:10.725Z,43.96
2019-05-03T11:47:41.713Z,43.73
2019-05-03T11:50:14.811Z,43.04
2019-05-03T11:52:47.256Z,43.63
2019-05-03T11:55:20.599Z,44.92
2019-05-03T11:57:51.913Z,46.29
2019-05-03T12:00:25.326Z,47.57
2019-05-03T12:03:08.137Z,48.54
2019-05-03T12:05:40.471Z,49.90
2019-05-03T12:08:11.562Z,50.09
2019-05-03T12:10:55.250Z,49.51
2019-05-03T12:13:19.730Z,47.83
2019-05-03T12:15:50.837Z,47.29
2019-05-03T12:18:22.361Z,47.61
2019-05-03T12:20:56.570Z,46.40
2019-05-03T12:23:31.019Z,45.84
2019-05-03T12:26:00.940Z,45.67
2019-05-03T12:28:32.358Z,44.71
2019-05-03T12:31:04.863Z,44.69
2019-05-03T12:33:36.556Z,44.80
2019-05-03T12:36:07.938Z,43.79
2019-05-03T12:38:38.812Z,43.95
2019-05-03T12:41:11.707Z,44.04
2019-05-03T12:43:44.614Z,44.01
2019-05-03T12:46:16.873Z,44.06
2019-05-03T12:48:50.770Z,42.81
2019-05-03T12:51:25.132Z,42.25
2019-05-03T12:54:00.162Z,42.01
2019-05-03T12:56:32.909Z,42.58
2019-05-03T12:59:08.917Z,42.15
2019-05-03T13:01:47.984Z,42.33
2019-05-03T13:04:32.974Z,42.27
2019-05-03T13:07:07.338Z,40.54
2019-05-03T13:09:42.399Z,40.74
2019-05-03T13:12:15.014Z,40.06
2019-05-03T13:14:50.511Z,38.91
2019-05-03T13:17:37.785Z,39.76
2019-05-03T13:20:11.597Z,39.67
2019-05-03T13:22:42.707Z,39.71
2019-05-03T13:25:16.395Z,40.17
2019-05-03T13:27:47.814Z,39.53
2019-05-03T13:30:19.085Z,38.15
2019-05-03T13:32:54.796Z,37.19
2019-05-03T13:35:25.875Z,38.60
2019-05-03T13:37:57.537Z,37.66
2019-05-03T13:40:29.266Z,37.53
2019-05-03T13:43:06.690Z,36.86
2019-05-03T13:45:45.361Z,36.98
2019-05-03T13:48:20.909Z,38.01
2019-05-03T13:50:49.441Z,37.72
2019-05-03T13:53:25.249Z,37.89
2019-05-03T13:56:01.850Z,37.69
2019-05-03T13:58:35.841Z,36.86
2019-05-03T14:01:07.519Z,37.55
2019-05-03T14:03:38.833Z,36.50
2019-05-03T14:06:11.743Z,37.53
2019-05-03T14:08:46.225Z,36.53
2019-05-03T14:11:21.191Z,35.63
2019-05-03T14:13:55.031Z,36.49
2019-05-03T14:16:28.047Z,36.74
2019-05-03T14:19:01.888Z,37.88
2019-05-03T14:21:40.633Z,38.73
2019-05-03T14:24:15.825Z,39.26
2019-05-03T14:26:48.142Z,39.70
2019-05-03T14:29:29.227Z,38.92
2019-05-03T14:32:10.512Z,39.86
2019-05-03T14:34:45.496Z,40.03
2019-05-03T14:37:16.990Z,39.17
2019-05-03T14:39:48.551Z,39.40
2019-05-03T14:42:19.817Z,40.21
2019-05-03T14:44:50.947Z,39.16
2019-05-03T14:47:25.130Z,38.80
2019-05-03T14:49:58.127Z,39.08
2019-05-03T14:52:29.174Z,39.37
2019-05-03T14:55:02.276Z,39.55
2019-05-03T14:57:38.337Z,39.33
2019-05-03T15:00:29.866Z,39.48
2019-05-03T15:03:08.308Z,41.41
2019-05-03T15:05:39.499Z,41.16
2019-05-03T15:08:10.571Z,40.14
2019-05-03T15:10:41.749Z,41.13
2019-05-03T15:13:17.323Z,41.48
2019-05-03T15:15:48.471Z,41.66
2019-05-03T15:18:19.623Z,39.87
2019-05-03T15:20:50.642Z,40.50
2019-05-03T15:23:21.691Z,41.88
2019-05-03T15:25:54.643Z,41.05
2019-05-03T15:28:25.827Z,40.18
2019-05-03T15:30:56.772Z,40.35
2019-05-03T15:33:27.732Z,40.23
2019-05-03T15:35:58.901Z,41.03
2019-05-03T15:38:29.911Z,40.96
2019-05-03T15:41:00.996Z,41.02
2019-05-03T15:43:45.196Z,42.11
2019-05-03T15:46:26.029Z,41.77
2019-05-03T15:48:58.835Z,42.47
2019-05-03T15:51:30.771Z,42.17
2019-05-03T15:54:01.933Z,42.28
2019-05-03T15:56:32.959Z,42.34
2019-05-03T15:59:04.532Z,42.07
2019-05-03T16:01:35.628Z,40.94
2019-05-03T16:04:06.698Z,39.60
2019-05-03T16:06:37.607Z,38.79
2019-05-03T16:09:08.919Z,38.76
2019-05-03T16:11:39.858Z,38.66
2019-05-03T16:14:12.014Z,39.50
2019-05-03T16:16:45.003Z,40.26
2019-05-03T16:19:15.730Z,40.63
2019-05-03T16:21:46.873Z,41.17
2019-05-03T16:24:18.120Z,41.95
2019-05-03T16:27:06.072Z,42.27
2019-05-03T16:29:36.992Z,42.70
2019-05-03T16:32:07.980Z,42.92
2019-05-03T16:34:38.988Z,43.16
2019-05-03T16:37:09.984Z,43.25
2019-05-03T16:39:41.063Z,43.26
2019-05-03T16:42:15.415Z,43.44
2019-05-03T16:44:46.461Z,43.30
2019-05-03T16:47:17.597Z,43.58
2019-05-03T16:49:48.763Z,43.58
2019-05-03T16:52:19.821Z,43.59
2019-05-03T16:54:50.909Z,43.40
2019-05-03T16:57:21.951Z,43.35
2019-05-03T16:59:55.004Z,43.35
2019-05-03T17:02:25.999Z,43.54
2019-05-03T17:04:58.810Z,44.04
2019-05-03T17:07:31.389Z,43.75
2019-05-03T17:10:10.041Z,43.75
2019-05-03T17:12:41.159Z,43.91
2019-05-03T17:15:14.438Z,43.89
2019-05-03T17:17:45.565Z,43.99
2019-05-03T17:20:16.740Z,44.09
2019-05-03T17:22:48.834Z,44.06
2019-05-03T17:25:19.862Z,44.22
2019-05-03T17:27:51.027Z,44.21
2019-05-03T17:30:32.797Z,44.36
2019-05-03T17:32:55.830Z,44.46
2019-05-03T17:35:26.986Z,44.68
2019-05-03T17:37:57.910Z,44.88
2019-05-03T17:40:47.826Z,45.11
2019-05-03T17:43:20.615Z,45.52
2019-05-03T17:45:55.007Z,45.79
2019-05-03T17:48:26.277Z,46.10
2019-05-03T17:50:57.328Z,46.28
2019-05-03T17:53:39.083Z,46.67
2019-05-03T17:56:20.602Z,46.79
2019-05-03T17:58:55.087Z,46.80
2019-05-03T18:01:27.628Z,47.02
2019-05-03T18:04:17.481Z,47.16
2019-05-03T18:06:50.101Z,47.38
2019-05-03T18:09:22.880Z,47.36
2019-05-03T18:11:55.656Z,47.65
2019-05-03T18:14:26.681Z,47.72
2019-05-03T18:16:57.941Z,47.82
2019-05-03T18:19:28.923Z,48.03
2019-05-03T18:21:59.987Z,48.29
2019-05-03T18:24:31.082Z,48.28
2019-05-03T18:27:02.232Z,48.44
2019-05-03T18:29:34.628Z,48.60
2019-05-03T18:32:06.301Z,48.64
2019-05-03T18:34:37.384Z,48.72
2019-05-03T18:37:08.517Z,48.72
2019-05-03T18:39:39.764Z,48.95
2019-05-03T18:42:13.058Z,49.02
2019-05-03T18:44:51.657Z,49.21
2019-05-03T18:47:27.507Z,49.37
2019-05-03T18:49:58.550Z,49.63
2019-05-03T18:52:29.594Z,49.71
2019-05-03T18:55:00.578Z,49.75
2019-05-03T18:57:31.587Z,49.83
2019-05-03T19:00:07.748Z,50.00
2019-05-03T19:02:37.796Z,50.09
2019-05-03T19:05:09.756Z,50.22
2019-05-03T19:07:58.805Z,50.28
2019-05-03T19:10:35.435Z,50.23
2019-05-03T19:13:17.194Z,50.25
2019-05-03T19:15:48.458Z,50.47
2019-05-03T19:18:21.147Z,50.51
2019-05-03T19:20:52.237Z,50.57
2019-05-03T19:23:24.882Z,50.61
2019-05-03T19:25:55.978Z,50.70
2019-05-03T19:28:27.023Z,50.91
2019-05-03T19:30:58.136Z,50.90
2019-05-03T19:33:29.620Z,50.98
2019-05-03T19:36:00.697Z,51.01
2019-05-03T19:38:31.653Z,51.12
2019-05-03T19:41:02.814Z,51.35
2019-05-03T19:43:35.568Z,51.36
2019-05-03T19:46:07.364Z,51.38
2019-05-03T19:48:38.720Z,51.57
2019-05-03T19:51:09.851Z,51.57
2019-05-03T19:53:55.204Z,51.52
2019-05-03T19:56:26.421Z,51.65
2019-05-03T19:58:59.104Z,51.87
2019-05-03T20:01:31.877Z,52.23
2019-05-03T20:04:11.606Z,52.15
2019-05-03T20:06:59.536Z,52.35
2019-05-03T20:09:30.754Z,52.42
2019-05-03T20:12:01.742Z,52.47
2019-05-03T20:14:32.926Z,52.39
2019-05-03T20:17:04.763Z,52.40
2019-05-03T20:19:36.788Z,52.67
2019-05-03T20:22:07.776Z,52.97
2019-05-03T20:24:38.748Z,53.16
2019-05-03T20:27:09.874Z,52.96
2019-05-03T20:29:43.536Z,53.21
2019-05-03T20:32:15.773Z,53.34
2019-05-03T20:34:46.812Z,53.06
2019-05-03T20:37:17.747Z,53.15
2019-05-03T20:39:48.770Z,53.18
2019-05-03T20:42:37.707Z,53.17
2019-05-03T20:45:10.374Z,53.28
2019-05-03T20:47:43.177Z,53.24
2019-05-03T20:50:18.129Z,53.46
2019-05-03T20:52:49.080Z,53.51
2019-05-03T20:55:20.140Z,53.63
2019-05-03T20:57:51.225Z,53.82
2019-05-03T21:00:25.594Z,53.91
2019-05-03T21:02:57.471Z,53.90
2019-05-03T21:05:33.016Z,54.02
2019-05-03T21:08:01.718Z,53.93
2019-05-03T21:10:32.812Z,54.16
2019-05-03T21:13:05.458Z,53.99
2019-05-03T21:15:38.514Z,53.96
2019-05-03T21:18:11.368Z,53.97
2019-05-03T21:20:53.112Z,54.15
2019-05-03T21:23:28.380Z,54.01
2019-05-03T21:26:12.575Z,53.98
2019-05-03T21:28:36.991Z,53.92
2019-05-03T21:31:08.027Z,53.75
2019-05-03T21:33:39.188Z,53.74
2019-05-03T21:36:10.511Z,53.71
2019-05-03T21:38:41.473Z,53.58
2019-05-03T21:41:12.504Z,53.52
2019-05-03T21:43:45.148Z,53.70
2019-05-03T21:46:18.139Z,53.88
2019-05-03T21:48:56.631Z,53.82
2019-05-03T21:51:27.729Z,53.92
2019-05-03T21:53:59.697Z,53.98
2019-05-03T21:56:30.811Z,53.88
2019-05-03T21:59:02.052Z,53.88
2019-05-03T22:01:34.984Z,54.00
2019-05-03T22:04:06.457Z,53.92
2019-05-03T22:06:37.626Z,53.98
2019-05-03T22:09:08.708Z,54.08
2019-05-03T22:11:41.378Z,54.34
2019-05-03T22:14:15.128Z,54.37
2019-05-03T22:16:48.816Z,54.38
2019-05-03T22:19:19.939Z,54.48
2019-05-03T22:21:52.616Z,54.52
2019-05-03T22:24:31.116Z,54.56
2019-05-03T22:27:04.894Z,54.67
2019-05-03T22:29:36.581Z,54.55
2019-05-03T22:32:07.769Z,54.56
2019-05-03T22:34:38.877Z,54.51
2019-05-03T22:37:10.291Z,54.55
2019-05-03T22:39:41.441Z,54.68
2019-05-03T22:42:12.548Z,54.77
2019-05-03T22:44:44.816Z,54.73
2019-05-03T22:47:16.183Z,54.88
2019-05-03T22:49:47.355Z,54.84
2019-05-03T22:52:18.510Z,54.76
2019-05-03T22:54:49.696Z,54.75
2019-05-03T22:57:20.909Z,54.88
2019-05-03T22:59:52.126Z,54.88
2019-05-03T23:02:24.879Z,55.08
2019-05-03T23:04:56.183Z,54.96
2019-05-03T23:07:27.477Z,54.97
2019-05-03T23:09:58.700Z,54.80
2019-05-03T23:12:29.972Z,54.75
2019-05-03T23:15:00.906Z,54.89
2019-05-03T23:17:32.183Z,54.78
2019-05-03T23:20:06.615Z,54.68
2019-05-03T23:22:37.579Z,54.64
2019-05-03T23:25:08.666Z,54.52
2019-05-03T23:27:39.691Z,54.53
2019-05-03T23:30:11.013Z,54.57
2019-05-03T23:32:42.257Z,54.68
2019-05-03T23:35:14.450Z,54.76
2019-05-03T23:37:45.898Z,54.92
2019-05-03T23:40:16.970Z,55.03
2019-05-03T23:42:48.092Z,55.10
2019-05-03T23:45:19.300Z,55.23
2019-05-03T23:47:50.582Z,55.46
2019-05-03T23:50:24.702Z,55.51
2019-05-03T23:52:55.350Z,55.50
2019-05-03T23:55:34.598Z,55.79
2019-05-03T23:58:05.888Z,56.13
